Time;durP1;ratioP1;P1;durP2;ratioP2;P2;SDS_P1;SDS_P2;PMS_P1;PMS_P2;Temp;Humidity;BMP_temperature;BMP_pressure;BME280_temperature;BME280_humidity;BME280_pressure;Samples;Min_cycle;Max_cycle;Signal;HPM_P1;HPM_P2
2023/07/21 00:01:43;;;;;;;;;;;18.50;63.50;;;;;;5094423;28;19915;-39
2023/07/21 00:04:08;;;;;;;;;;;18.40;63.60;;;;;;5112334;28;19918;-38
2023/07/21 00:06:34;;;;;;;;;;;18.40;63.70;;;;;;5112749;28;19908;-41
2023/07/21 00:08:59;;;;;;;;;;;18.40;63.70;;;;;;5094146;28;19908;-45
2023/07/21 00:11:24;;;;;;;;;;;18.30;63.70;;;;;;5112523;28;19953;-48
2023/07/21 00:13:50;;;;;;;;;;;18.30;63.80;;;;;;5112265;28;20385;-46
2023/07/21 00:16:18;;;;;;;;;;;18.20;63.80;;;;;;5112206;28;19908;-38
2023/07/21 00:18:44;;;;;;;;;;;18.20;63.90;;;;;;5112218;28;19908;-41
2023/07/21 00:21:10;;;;;;;;;;;18.20;63.90;;;;;;5093810;28;19919;-38
2023/07/21 00:23:36;;;;;;;;;;;18.20;63.90;;;;;;5112225;28;19908;-36
2023/07/21 00:26:01;;;;;;;;;;;18.20;63.80;;;;;;5094448;28;19977;-40
2023/07/21 00:28:27;;;;;;;;;;;18.20;63.80;;;;;;5115728;28;19915;-38
2023/07/21 00:30:52;;;;;;;;;;;18.30;63.80;;;;;;5116285;28;20388;-40
2023/07/21 00:33:18;;;;;;;;;;;18.20;63.80;;;;;;5116152;28;20298;-39
2023/07/21 00:35:43;;;;;;;;;;;18.30;63.90;;;;;;5115964;28;20402;-41
2023/07/21 00:38:09;;;;;;;;;;;18.30;63.90;;;;;;5097676;28;19955;-37
2023/07/21 00:40:38;;;;;;;;;;;18.20;63.80;;;;;;5116300;28;19915;-38
2023/07/21 00:43:04;;;;;;;;;;;18.20;63.90;;;;;;5097841;28;19965;-41
2023/07/21 00:45:32;;;;;;;;;;;18.20;63.90;;;;;;5115876;28;20408;-41
2023/07/21 00:47:58;;;;;;;;;;;18.20;64.00;;;;;;5115748;28;19920;-38
2023/07/21 00:50:24;;;;;;;;;;;18.10;64.00;;;;;;5116130;28;19914;-41
2023/07/21 00:52:50;;;;;;;;;;;18.10;64.20;;;;;;5115708;28;19908;-41
2023/07/21 00:55:15;;;;;;;;;;;18.00;64.30;;;;;;5115759;28;19933;-39
2023/07/21 00:57:41;;;;;;;;;;;18.00;64.40;;;;;;5116030;28;19908;-40
2023/07/21 01:00:11;;;;;;;;;;;18.00;64.30;;;;;;5115802;28;19907;-39
2023/07/21 01:02:37;;;;;;;;;;;18.00;64.30;;;;;;5115390;28;19916;-38
2023/07/21 01:05:03;;;;;;;;;;;17.90;64.30;;;;;;5115598;28;19960;-40
2023/07/21 01:07:32;;;;;;;;;;;17.90;64.40;;;;;;5115430;28;19915;-47
2023/07/21 01:09:58;;;;;;;;;;;17.90;64.40;;;;;;5115799;28;20026;-40
2023/07/21 01:12:24;;;;;;;;;;;17.90;64.50;;;;;;5115875;28;20365;-40
2023/07/21 01:14:49;;;;;;;;;;;17.90;64.60;;;;;;5115254;28;19908;-39
2023/07/21 01:17:15;;;;;;;;;;;17.90;64.60;;;;;;5097067;28;20375;-38
2023/07/21 01:19:41;;;;;;;;;;;17.80;64.60;;;;;;5115531;28;19915;-43
2023/07/21 01:22:11;;;;;;;;;;;17.80;64.70;;;;;;5115189;28;20011;-39
2023/07/21 01:24:46;;;;;;;;;;;17.80;64.70;;;;;;5115544;28;19923;-44
2023/07/21 01:27:12;;;;;;;;;;;17.80;64.70;;;;;;5115082;28;19908;-41
2023/07/21 01:29:40;;;;;;;;;;;17.80;64.70;;;;;;5115095;28;20007;-39
2023/07/21 01:32:08;;;;;;;;;;;17.80;64.70;;;;;;5114816;28;19969;-39
2023/07/21 01:34:34;;;;;;;;;;;17.80;64.80;;;;;;5115042;28;19915;-51
2023/07/21 01:37:00;;;;;;;;;;;17.80;64.80;;;;;;5114997;28;19907;-44
2023/07/21 01:39:26;;;;;;;;;;;17.80;64.80;;;;;;5114099;28;19957;-36
2023/07/21 01:41:52;;;;;;;;;;;17.80;64.90;;;;;;5114902;28;20014;-38
2023/07/21 01:44:19;;;;;;;;;;;17.80;64.90;;;;;;5096442;28;19963;-38
2023/07/21 01:46:46;;;;;;;;;;;17.80;64.90;;;;;;5096188;28;19961;-40
2023/07/21 01:49:11;;;;;;;;;;;17.80;65.00;;;;;;5114649;28;19936;-39
2023/07/21 01:51:37;;;;;;;;;;;17.80;65.00;;;;;;5114677;28;20006;-39
2023/07/21 01:54:05;;;;;;;;;;;17.80;65.00;;;;;;5114500;28;20395;-39
2023/07/21 01:56:46;;;;;;;;;;;17.80;65.10;;;;;;5114929;28;19942;-38
2023/07/21 01:59:12;;;;;;;;;;;17.70;65.10;;;;;;5114622;28;19915;-39
2023/07/21 02:01:38;;;;;;;;;;;17.70;65.20;;;;;;5114493;28;19916;-38
2023/07/21 02:04:04;;;;;;;;;;;17.70;65.40;;;;;;5114771;28;20363;-38
2023/07/21 02:06:31;;;;;;;;;;;17.60;65.40;;;;;;5096020;28;20264;-40
2023/07/21 02:08:56;;;;;;;;;;;17.50;65.60;;;;;;5114603;28;19908;-39
2023/07/21 02:11:22;;;;;;;;;;;17.50;65.70;;;;;;5114450;28;20260;-40
2023/07/21 02:13:47;;;;;;;;;;;17.40;65.80;;;;;;5114208;28;19994;-40
2023/07/21 02:16:13;;;;;;;;;;;17.40;65.80;;;;;;5114177;28;20431;-48
2023/07/21 02:18:39;;;;;;;;;;;17.30;65.80;;;;;;5114082;28;20333;-44
2023/07/21 02:21:04;;;;;;;;;;;17.30;65.90;;;;;;5114314;28;19907;-41
2023/07/21 02:23:33;;;;;;;;;;;17.30;66.00;;;;;;5113989;28;19958;-39
2023/07/21 02:25:59;;;;;;;;;;;17.30;66.00;;;;;;5113992;28;19998;-38
2023/07/21 02:28:25;;;;;;;;;;;17.20;66.00;;;;;;5113803;28;20354;-40
2023/07/21 02:31:02;;;;;;;;;;;17.20;66.10;;;;;;5113741;28;19908;-38
2023/07/21 02:33:28;;;;;;;;;;;17.20;66.10;;;;;;5114023;28;19907;-38
2023/07/21 02:35:54;;;;;;;;;;;17.20;66.20;;;;;;5114006;28;19907;-39
2023/07/21 02:38:19;;;;;;;;;;;17.20;66.20;;;;;;5113691;28;20081;-38
2023/07/21 02:40:45;;;;;;;;;;;17.20;66.20;;;;;;5114189;28;20271;-39
2023/07/21 02:43:12;;;;;;;;;;;17.20;66.30;;;;;;5113489;28;19954;-37
2023/07/21 02:45:38;;;;;;;;;;;17.20;66.30;;;;;;5113794;28;19908;-39
2023/07/21 02:48:06;;;;;;;;;;;17.20;66.40;;;;;;5113433;28;20256;-40
2023/07/21 02:50:32;;;;;;;;;;;17.20;66.40;;;;;;5094617;28;19912;-40
2023/07/21 02:52:58;;;;;;;;;;;17.10;66.40;;;;;;5113471;28;19908;-38
2023/07/21 02:55:23;;;;;;;;;;;17.10;66.50;;;;;;5113527;28;20435;-40
2023/07/21 02:57:49;;;;;;;;;;;17.10;66.60;;;;;;5113408;28;20297;-39
2023/07/21 03:00:14;;;;;;;;;;;17.10;66.70;;;;;;5113632;28;19916;-38
2023/07/21 03:02:41;;;;;;;;;;;17.10;66.70;;;;;;5113256;28;20294;-39
2023/07/21 03:05:07;;;;;;;;;;;17.10;66.80;;;;;;5095317;28;19914;-39
2023/07/21 03:07:32;;;;;;;;;;;17.00;66.90;;;;;;5113003;28;19908;-39
2023/07/21 03:09:58;;;;;;;;;;;17.00;67.00;;;;;;5113257;28;19918;-39
2023/07/21 03:12:23;;;;;;;;;;;17.00;67.10;;;;;;5113194;28;19908;-40
2023/07/21 03:14:49;;;;;;;;;;;16.90;67.20;;;;;;5113440;28;19908;-39
2023/07/21 03:17:14;;;;;;;;;;;16.90;67.30;;;;;;5113201;28;19975;-39
2023/07/21 03:19:40;;;;;;;;;;;16.90;67.30;;;;;;5112915;28;19908;-38
2023/07/21 03:22:05;;;;;;;;;;;16.90;67.30;;;;;;5095028;28;20314;-37
2023/07/21 03:24:32;;;;;;;;;;;16.80;67.40;;;;;;5112943;28;19912;-38
2023/07/21 03:26:58;;;;;;;;;;;16.80;67.60;;;;;;5113239;28;19972;-39
2023/07/21 03:29:23;;;;;;;;;;;16.70;67.60;;;;;;5094595;28;20362;-40
2023/07/21 03:31:49;;;;;;;;;;;16.70;67.70;;;;;;5112813;28;19996;-38
2023/07/21 03:34:14;;;;;;;;;;;16.70;67.90;;;;;;5112815;28;19908;-39
2023/07/21 03:36:40;;;;;;;;;;;16.60;67.90;;;;;;5112695;28;19957;-43
2023/07/21 03:39:05;;;;;;;;;;;16.60;68.00;;;;;;5112768;28;19907;-40
2023/07/21 03:41:31;;;;;;;;;;;16.60;68.10;;;;;;5112432;28;20371;-37
2023/07/21 03:43:57;;;;;;;;;;;16.50;68.10;;;;;;5112614;28;19915;-38
2023/07/21 03:46:22;;;;;;;;;;;16.50;68.20;;;;;;5112649;28;19953;-48
2023/07/21 03:48:48;;;;;;;;;;;16.50;68.20;;;;;;5112401;28;19954;-39
2023/07/21 03:51:13;;;;;;;;;;;16.40;68.30;;;;;;5094557;28;19953;-40
2023/07/21 03:53:39;;;;;;;;;;;16.40;68.40;;;;;;5112565;28;19908;-38
2023/07/21 03:56:05;;;;;;;;;;;16.30;68.50;;;;;;5112607;28;19912;-39
2023/07/21 03:58:31;;;;;;;;;;;16.30;68.70;;;;;;5112317;28;19908;-36
2023/07/21 04:00:58;;;;;;;;;;;16.30;68.80;;;;;;5112459;28;19942;-39
2023/07/21 04:03:24;;;;;;;;;;;16.20;68.80;;;;;;5115990;28;19907;-40
2023/07/21 04:05:50;;;;;;;;;;;16.30;68.90;;;;;;5116563;28;19988;-36
2023/07/21 04:08:16;;;;;;;;;;;16.20;68.90;;;;;;5116659;28;19908;-37
2023/07/21 04:10:41;;;;;;;;;;;16.30;68.90;;;;;;5116473;28;20008;-39
2023/07/21 04:13:07;;;;;;;;;;;16.20;68.90;;;;;;5117186;28;19908;-37
2023/07/21 04:15:33;;;;;;;;;;;16.30;69.00;;;;;;5116381;28;19916;-38
2023/07/21 04:17:58;;;;;;;;;;;16.30;69.00;;;;;;5116348;28;19912;-38
2023/07/21 04:20:24;;;;;;;;;;;16.30;69.00;;;;;;5116712;28;20070;-39
2023/07/21 04:22:49;;;;;;;;;;;16.30;69.60;;;;;;5116249;28;19916;-38
2023/07/21 04:25:17;;;;;;;;;;;16.30;69.00;;;;;;5116635;28;19908;-44
2023/07/21 04:27:42;;;;;;;;;;;16.30;68.90;;;;;;5116170;28;19939;-41
2023/07/21 04:30:08;;;;;;;;;;;16.40;69.00;;;;;;5116144;28;19912;-36
2023/07/21 04:32:33;;;;;;;;;;;16.40;69.00;;;;;;5116287;28;19908;-40
2023/07/21 04:35:03;;;;;;;;;;;16.50;69.00;;;;;;5115972;28;19908;-37
2023/07/21 04:37:29;;;;;;;;;;;16.50;68.90;;;;;;5116113;28;19912;-40
2023/07/21 04:39:54;;;;;;;;;;;16.60;68.80;;;;;;5116309;28;19915;-38
2023/07/21 04:42:20;;;;;;;;;;;16.60;68.80;;;;;;5115955;28;19912;-39
2023/07/21 04:44:48;;;;;;;;;;;16.60;68.60;;;;;;5115930;28;19960;-39
2023/07/21 04:47:13;;;;;;;;;;;16.70;68.60;;;;;;5115914;28;19923;-40
2023/07/21 04:49:39;;;;;;;;;;;16.70;68.50;;;;;;5116022;28;20351;-38
2023/07/21 04:52:05;;;;;;;;;;;16.80;68.50;;;;;;5115768;28;19933;-40
2023/07/21 04:54:30;;;;;;;;;;;16.80;68.40;;;;;;5115738;28;20002;-38
2023/07/21 04:56:56;;;;;;;;;;;16.90;68.50;;;;;;5115691;28;19915;-39
2023/07/21 04:59:21;;;;;;;;;;;16.80;68.40;;;;;;5115643;28;20034;-36
2023/07/21 05:01:47;;;;;;;;;;;16.90;68.40;;;;;;5115809;28;19916;-39
2023/07/21 05:04:14;;;;;;;;;;;16.90;68.60;;;;;;5115567;28;19907;-40
2023/07/21 05:06:42;;;;;;;;;;;16.90;68.50;;;;;;5115500;28;19931;-38
2023/07/21 05:09:09;;;;;;;;;;;16.90;68.50;;;;;;5115488;28;19907;-43
2023/07/21 05:11:35;;;;;;;;;;;16.90;68.50;;;;;;5115526;28;20046;-40
2023/07/21 05:14:03;;;;;;;;;;;16.90;68.60;;;;;;5114069;28;19955;-38
2023/07/21 05:16:29;;;;;;;;;;;16.90;68.60;;;;;;5115166;28;20371;-36
2023/07/21 05:18:54;;;;;;;;;;;17.00;68.70;;;;;;5115420;28;19915;-39
2023/07/21 05:21:20;;;;;;;;;;;16.90;68.70;;;;;;5115063;28;19951;-38
2023/07/21 05:23:45;;;;;;;;;;;16.90;68.70;;;;;;5115181;28;20002;-39
2023/07/21 05:26:11;;;;;;;;;;;16.90;68.80;;;;;;5115051;28;19908;-38
2023/07/21 05:28:37;;;;;;;;;;;17.00;68.80;;;;;;5115038;28;19908;-38
2023/07/21 05:31:03;;;;;;;;;;;17.00;68.80;;;;;;5115047;28;19915;-39
2023/07/21 05:33:29;;;;;;;;;;;17.00;68.80;;;;;;5114960;28;19981;-38
2023/07/21 05:36:05;;;;;;;;;;;17.00;68.80;;;;;;5115272;28;19934;-48
2023/07/21 05:38:32;;;;;;;;;;;17.10;68.80;;;;;;5115114;28;20351;-39
2023/07/21 05:40:58;;;;;;;;;;;17.10;68.70;;;;;;5096707;28;19908;-38
2023/07/21 05:43:23;;;;;;;;;;;17.20;68.70;;;;;;5115173;28;19930;-39
2023/07/21 05:45:49;;;;;;;;;;;17.20;68.60;;;;;;5114664;28;19908;-37
2023/07/21 05:48:15;;;;;;;;;;;17.30;68.50;;;;;;5114768;28;19939;-41
2023/07/21 05:50:40;;;;;;;;;;;17.40;68.50;;;;;;5096452;28;19908;-39
2023/07/21 05:53:05;;;;;;;;;;;17.50;68.40;;;;;;5114687;28;20002;-41
2023/07/21 05:55:31;;;;;;;;;;;17.60;68.30;;;;;;5114874;28;19907;-38
2023/07/21 05:57:56;;;;;;;;;;;17.60;68.20;;;;;;5114736;28;19908;-36
2023/07/21 06:00:22;;;;;;;;;;;17.70;68.20;;;;;;5115184;28;19908;-39
2023/07/21 06:02:47;;;;;;;;;;;17.80;68.00;;;;;;5114430;28;19991;-36
2023/07/21 06:05:13;;;;;;;;;;;17.80;67.90;;;;;;5114495;28;19914;-44
2023/07/21 06:07:42;;;;;;;;;;;17.90;67.80;;;;;;5114447;28;19911;-39
2023/07/21 06:10:08;;;;;;;;;;;17.90;67.70;;;;;;5114446;28;19908;-39
2023/07/21 06:12:33;;;;;;;;;;;17.90;67.60;;;;;;5114475;28;20002;-39
2023/07/21 06:14:59;;;;;;;;;;;18.00;67.50;;;;;;5114254;28;20238;-37
2023/07/21 06:17:26;;;;;;;;;;;18.00;67.50;;;;;;5114094;28;20384;-38
2023/07/21 06:19:52;;;;;;;;;;;18.00;67.40;;;;;;5114007;28;19953;-37
2023/07/21 06:22:17;;;;;;;;;;;18.00;67.30;;;;;;5114029;28;19912;-39
2023/07/21 06:24:45;;;;;;;;;;;18.10;67.30;;;;;;5113746;28;19908;-44
2023/07/21 06:27:12;;;;;;;;;;;18.10;67.30;;;;;;5114217;28;19908;-40
2023/07/21 06:29:37;;;;;;;;;;;18.20;67.40;;;;;;5114093;28;19912;-39
2023/07/21 06:32:03;;;;;;;;;;;18.20;67.30;;;;;;5113826;28;19989;-39
2023/07/21 06:34:28;;;;;;;;;;;18.20;67.90;;;;;;5113558;28;19937;-40
2023/07/21 06:36:54;;;;;;;;;;;18.30;67.40;;;;;;5113802;28;20359;-40
2023/07/21 06:39:22;;;;;;;;;;;18.30;67.20;;;;;;5113680;28;19976;-39
2023/07/21 06:41:48;;;;;;;;;;;18.40;67.10;;;;;;5114053;28;19918;-40
2023/07/21 06:44:14;;;;;;;;;;;18.40;67.10;;;;;;5114145;28;19908;-40
2023/07/21 06:46:42;;;;;;;;;;;18.40;66.90;;;;;;5113982;28;20321;-38
2023/07/21 06:49:07;;;;;;;;;;;18.40;66.90;;;;;;5113945;28;20427;-47
2023/07/21 06:51:33;;;;;;;;;;;18.50;66.80;;;;;;5113514;28;19990;-38
2023/07/21 06:53:58;;;;;;;;;;;18.50;66.70;;;;;;5113682;28;19916;-39
2023/07/21 06:56:24;;;;;;;;;;;18.60;66.60;;;;;;5113661;28;20418;-38
2023/07/21 06:58:49;;;;;;;;;;;18.60;66.50;;;;;;5113490;28;19908;-39
2023/07/21 07:01:15;;;;;;;;;;;18.60;66.30;;;;;;5113540;28;19908;-40
2023/07/21 07:03:41;;;;;;;;;;;18.70;66.10;;;;;;5113251;28;20418;-39
2023/07/21 07:06:06;;;;;;;;;;;18.80;66.10;;;;;;5113270;28;19908;-40
2023/07/21 07:08:32;;;;;;;;;;;18.90;66.00;;;;;;5113539;28;19908;-39
2023/07/21 07:10:57;;;;;;;;;;;19.00;65.80;;;;;;5113193;28;20011;-38
2023/07/21 07:13:23;;;;;;;;;;;19.00;65.50;;;;;;5113408;28;19935;-39
2023/07/21 07:15:49;;;;;;;;;;;19.10;65.40;;;;;;5113165;28;19923;-58
2023/07/21 07:18:14;;;;;;;;;;;19.20;65.20;;;;;;5113361;28;20390;-39
2023/07/21 07:20:47;;;;;;;;;;;19.30;65.10;;;;;;5113326;28;19946;-38
2023/07/21 07:23:12;;;;;;;;;;;19.40;65.00;;;;;;5112845;28;19911;-38
2023/07/21 07:25:38;;;;;;;;;;;19.50;64.80;;;;;;5094627;28;20259;-38
2023/07/21 07:28:04;;;;;;;;;;;19.60;64.50;;;;;;5113090;28;19981;-39
2023/07/21 07:30:33;;;;;;;;;;;19.70;64.40;;;;;;5113146;28;20254;-39
2023/07/21 07:32:58;;;;;;;;;;;19.80;64.20;;;;;;5112820;28;19912;-36
2023/07/21 07:35:24;;;;;;;;;;;19.90;63.90;;;;;;5111878;28;19908;-37
2023/07/21 07:37:49;;;;;;;;;;;20.00;63.80;;;;;;5111184;28;20017;-39
2023/07/21 07:40:15;;;;;;;;;;;20.10;63.60;;;;;;5112759;28;19915;-39
2023/07/21 07:42:40;;;;;;;;;;;20.30;63.20;;;;;;5112626;28;20446;-38
2023/07/21 07:45:06;;;;;;;;;;;20.40;63.10;;;;;;5112968;28;19998;-39
2023/07/21 07:47:31;;;;;;;;;;;20.50;62.90;;;;;;5112448;28;19916;-38
2023/07/21 07:49:57;;;;;;;;;;;20.60;62.50;;;;;;5112627;28;19912;-39
2023/07/21 07:52:22;;;;;;;;;;;20.60;62.30;;;;;;5112869;28;19912;-37
2023/07/21 07:54:49;;;;;;;;;;;20.70;62.30;;;;;;5112702;28;19911;-38
2023/07/21 07:57:15;;;;;;;;;;;20.80;62.20;;;;;;5112998;28;19912;-51
2023/07/21 07:59:41;;;;;;;;;;;20.90;62.00;;;;;;5112754;28;19912;-40
2023/07/21 08:02:06;;;;;;;;;;;20.90;61.70;;;;;;5094340;28;19927;-39
2023/07/21 08:04:32;;;;;;;;;;;20.90;61.60;;;;;;5112291;28;19915;-38
2023/07/21 08:06:57;;;;;;;;;;;20.90;61.50;;;;;;5112383;28;20318;-38
2023/07/21 08:09:23;;;;;;;;;;;20.90;61.10;;;;;;5112504;28;19942;-38
2023/07/21 08:11:49;;;;;;;;;;;20.90;61.40;;;;;;5094176;28;19972;-38
2023/07/21 08:14:14;;;;;;;;;;;20.90;61.10;;;;;;5112787;28;20350;-40
2023/07/21 08:16:40;;;;;;;;;;;20.90;61.00;;;;;;5112692;28;19950;-37
2023/07/21 08:19:05;;;;;;;;;;;20.90;60.90;;;;;;5094298;28;19908;-39
2023/07/21 08:21:31;;;;;;;;;;;20.90;61.00;;;;;;5112222;28;20359;-39
2023/07/21 08:23:56;;;;;;;;;;;20.90;60.80;;;;;;5112330;28;19947;-39
2023/07/21 08:26:22;;;;;;;;;;;20.90;60.50;;;;;;5112296;28;19908;-38
2023/07/21 08:28:47;;;;;;;;;;;20.90;59.70;;;;;;5113059;28;19914;-41
2023/07/21 08:31:13;;;;;;;;;;;20.90;59.50;;;;;;5094007;28;19908;-39
2023/07/21 08:33:39;;;;;;;;;;;20.90;59.90;;;;;;5112601;28;20363;-39
2023/07/21 08:36:05;;;;;;;;;;;21.00;59.40;;;;;;5112386;28;19908;-40
2023/07/21 08:38:33;;;;;;;;;;;21.10;59.70;;;;;;5112326;28;20019;-42
2023/07/21 08:41:03;;;;;;;;;;;21.10;59.50;;;;;;5112605;28;19912;-41
2023/07/21 08:43:28;;;;;;;;;;;21.20;58.60;;;;;;5112479;28;20367;-38
2023/07/21 08:45:55;;;;;;;;;;;21.20;58.90;;;;;;5112117;28;19915;-40
2023/07/21 08:48:20;;;;;;;;;;;21.20;58.60;;;;;;5113529;28;19938;-37
2023/07/21 08:50:52;;;;;;;;;;;21.20;59.00;;;;;;5116091;28;19908;-41
2023/07/21 08:53:17;;;;;;;;;;;21.20;58.70;;;;;;5116036;28;19916;-40
2023/07/21 08:55:43;;;;;;;;;;;21.20;58.60;;;;;;5115835;28;19915;-38
2023/07/21 08:58:09;;;;;;;;;;;21.20;58.50;;;;;;5116032;28;19950;-39
2023/07/21 09:00:34;;;;;;;;;;;21.20;58.50;;;;;;5115906;28;19908;-40
2023/07/21 09:03:01;;;;;;;;;;;21.20;57.90;;;;;;5115978;28;19916;-40
2023/07/21 09:05:27;;;;;;;;;;;21.20;58.50;;;;;;5115935;28;20278;-40
2023/07/21 09:07:52;;;;;;;;;;;21.10;57.70;;;;;;5115871;28;19998;-39
2023/07/21 09:10:31;;;;;;;;;;;21.10;58.40;;;;;;5115639;28;19918;-37
2023/07/21 09:12:57;;;;;;;;;;;21.10;58.60;;;;;;5115921;28;19958;-41
2023/07/21 09:15:22;;;;;;;;;;;21.20;58.40;;;;;;5115339;28;19908;-40
2023/07/21 09:17:48;;;;;;;;;;;21.20;58.30;;;;;;5115490;28;19940;-38
2023/07/21 09:20:13;;;;;;;;;;;21.20;58.40;;;;;;5097031;28;20279;-39
2023/07/21 09:22:39;;;;;;;;;;;21.20;58.50;;;;;;5115135;28;19915;-40
2023/07/21 09:25:05;;;;;;;;;;;21.20;58.50;;;;;;5115978;28;19908;-49
2023/07/21 09:27:30;;;;;;;;;;;21.20;58.50;;;;;;5115191;28;20165;-38
2023/07/21 09:30:00;;;;;;;;;;;21.20;58.50;;;;;;5115482;28;19908;-40
2023/07/21 09:32:26;;;;;;;;;;;21.20;57.80;;;;;;5115021;28;19907;-40
2023/07/21 09:34:55;;;;;;;;;;;21.20;57.60;;;;;;5115111;28;19914;-38
2023/07/21 09:37:21;;;;;;;;;;;21.20;57.30;;;;;;5115065;28;19908;-39
2023/07/21 09:39:51;;;;;;;;;;;21.30;57.00;;;;;;5115331;28;19930;-41
2023/07/21 09:42:17;;;;;;;;;;;21.40;56.40;;;;;;5114925;28;19911;-39
2023/07/21 09:44:42;;;;;;;;;;;21.40;56.70;;;;;;5114753;28;19912;-38
2023/07/21 09:47:08;;;;;;;;;;;21.50;56.60;;;;;;5114932;28;19918;-40
2023/07/21 09:49:33;;;;;;;;;;;21.60;56.60;;;;;;5114720;28;20286;-41
2023/07/21 09:52:00;;;;;;;;;;;21.70;56.40;;;;;;5114660;28;19953;-38
2023/07/21 09:54:27;;;;;;;;;;;21.90;55.90;;;;;;5115126;28;19908;-39
2023/07/21 09:56:53;;;;;;;;;;;22.00;55.50;;;;;;5114960;28;20394;-40
2023/07/21 09:59:20;;;;;;;;;;;22.20;55.60;;;;;;5114051;28;20029;-38
2023/07/21 10:01:45;;;;;;;;;;;22.30;55.30;;;;;;5114451;28;19923;-39
2023/07/21 10:04:11;;;;;;;;;;;22.40;54.90;;;;;;5114488;28;20280;-38
2023/07/21 10:06:37;;;;;;;;;;;22.50;54.50;;;;;;5114839;28;20256;-40
2023/07/21 10:09:03;;;;;;;;;;;22.60;54.20;;;;;;5114782;28;19981;-49
2023/07/21 10:11:29;;;;;;;;;;;22.70;54.60;;;;;;5114763;28;20279;-39
2023/07/21 10:13:54;;;;;;;;;;;22.80;54.10;;;;;;5095939;28;19915;-39
2023/07/21 10:16:20;;;;;;;;;;;22.90;54.10;;;;;;5114338;28;19915;-39
2023/07/21 10:19:20;;;;;;;;;;;23.00;53.80;;;;;;5114707;28;19943;-37
2023/07/21 10:21:53;;;;;;;;;;;23.00;53.40;;;;;;5059605;28;19912;-39
2023/07/21 10:24:41;;;;;;;;;;;23.00;52.80;;;;;;5114449;28;19996;-40
2023/07/21 10:27:06;;;;;;;;;;;23.00;53.10;;;;;;5113858;28;19960;-42
2023/07/21 10:29:32;;;;;;;;;;;22.90;52.20;;;;;;5114279;28;20006;-40
2023/07/21 10:31:59;;;;;;;;;;;22.80;52.50;;;;;;5114054;28;19908;-39
2023/07/21 10:34:25;;;;;;;;;;;22.70;53.00;;;;;;5113885;28;19908;-39
2023/07/21 10:36:50;;;;;;;;;;;22.70;52.70;;;;;;5113959;28;19908;-38
2023/07/21 10:39:19;;;;;;;;;;;22.70;53.10;;;;;;5113776;28;20346;-40
2023/07/21 10:41:45;;;;;;;;;;;22.70;52.90;;;;;;5113762;28;19918;-40
2023/07/21 10:44:11;;;;;;;;;;;22.70;53.90;;;;;;5113704;28;19911;-39
2023/07/21 10:46:40;;;;;;;;;;;22.70;52.40;;;;;;5113772;28;19934;-40
2023/07/21 10:49:06;;;;;;;;;;;22.70;52.20;;;;;;5113390;28;20015;-40
2023/07/21 10:51:31;;;;;;;;;;;22.60;52.60;;;;;;5095108;28;19947;-38
2023/07/21 10:53:57;;;;;;;;;;;22.50;52.90;;;;;;5113555;28;19943;-41
2023/07/21 10:56:22;;;;;;;;;;;22.50;52.90;;;;;;5113465;28;19959;-38
2023/07/21 10:58:48;;;;;;;;;;;22.50;52.60;;;;;;5113765;28;20003;-39
2023/07/21 11:01:18;;;;;;;;;;;22.50;53.10;;;;;;5113451;28;19907;-38
2023/07/21 11:03:45;;;;;;;;;;;22.50;53.00;;;;;;5113253;28;19953;-37
2023/07/21 11:06:10;;;;;;;;;;;22.60;53.00;;;;;;5113510;28;19908;-39
2023/07/21 11:08:36;;;;;;;;;;;22.70;52.60;;;;;;5113365;28;19916;-47
2023/07/21 11:11:01;;;;;;;;;;;22.80;52.30;;;;;;5112590;28;19994;-39
2023/07/21 11:13:27;;;;;;;;;;;22.80;51.40;;;;;;5112858;28;19908;-40
2023/07/21 11:15:53;;;;;;;;;;;22.90;51.60;;;;;;5113100;28;19912;-39
2023/07/21 11:18:19;;;;;;;;;;;22.90;51.50;;;;;;5113173;28;19984;-39
2023/07/21 11:20:48;;;;;;;;;;;22.90;51.70;;;;;;5113262;28;20002;-40
2023/07/21 11:23:14;;;;;;;;;;;23.00;51.70;;;;;;5112986;28;20345;-40
2023/07/21 11:25:39;;;;;;;;;;;23.10;50.70;;;;;;5112997;28;19908;-38
2023/07/21 11:28:06;;;;;;;;;;;23.20;51.20;;;;;;5112983;28;19908;-40
2023/07/21 11:30:31;;;;;;;;;;;23.20;50.00;;;;;;5112857;28;19915;-40
2023/07/21 11:33:07;;;;;;;;;;;23.30;49.90;;;;;;5112918;28;19908;-39
2023/07/21 11:35:32;;;;;;;;;;;23.30;49.50;;;;;;5094684;28;19908;-38
2023/07/21 11:37:58;;;;;;;;;;;23.40;49.80;;;;;;5112833;28;19988;-38
2023/07/21 11:40:25;;;;;;;;;;;23.60;49.10;;;;;;5112592;28;19907;-39
2023/07/21 11:42:52;;;;;;;;;;;23.70;49.50;;;;;;5112467;28;19919;-40
2023/07/21 11:45:31;;;;;;;;;;;23.90;49.90;;;;;;5112808;28;19951;-40
2023/07/21 11:47:56;;;;;;;;;;;24.10;50.70;;;;;;5112747;28;19915;-41
2023/07/21 11:50:23;;;;;;;;;;;24.20;50.20;;;;;;5112665;28;19915;-37
2023/07/21 11:52:52;;;;;;;;;;;24.20;50.30;;;;;;5111874;28;22321;-38
2023/07/21 11:55:18;;;;;;;;;;;24.30;48.70;;;;;;5112782;28;20300;-44
2023/07/21 11:57:44;;;;;;;;;;;24.20;49.00;;;;;;5112361;28;19940;-48
2023/07/21 12:00:11;;;;;;;;;;;24.20;49.10;;;;;;5112514;28;19912;-39
2023/07/21 12:02:37;;;;;;;;;;;24.20;48.90;;;;;;5112779;28;19912;-41
2023/07/21 12:05:03;;;;;;;;;;;24.30;48.90;;;;;;5112750;28;19918;-44
2023/07/21 12:07:29;;;;;;;;;;;24.40;48.80;;;;;;5094333;28;19911;-39
2023/07/21 12:09:54;;;;;;;;;;;24.30;47.50;;;;;;5112497;28;19908;-39
2023/07/21 12:12:20;;;;;;;;;;;24.30;48.20;;;;;;5112475;28;19907;-38
2023/07/21 12:14:45;;;;;;;;;;;24.30;48.10;;;;;;5112469;28;19908;-39
2023/07/21 12:17:14;;;;;;;;;;;24.20;48.00;;;;;;5112833;28;20358;-37
2023/07/21 12:19:40;;;;;;;;;;;24.10;48.30;;;;;;5112298;28;19914;-42
2023/07/21 12:22:06;;;;;;;;;;;24.10;48.10;;;;;;5112577;28;19911;-40
2023/07/21 12:24:31;;;;;;;;;;;24.00;48.70;;;;;;5097704;28;20385;-40
2023/07/21 12:26:57;;;;;;;;;;;23.90;48.50;;;;;;5116728;28;19908;-39
2023/07/21 12:29:23;;;;;;;;;;;23.90;48.80;;;;;;5116677;28;19907;-40
2023/07/21 12:31:49;;;;;;;;;;;24.00;48.70;;;;;;5116354;28;19907;-37
2023/07/21 12:34:15;;;;;;;;;;;24.10;48.70;;;;;;5116306;28;19908;-39
2023/07/21 12:36:40;;;;;;;;;;;24.10;48.70;;;;;;5116511;28;20421;-38
2023/07/21 12:39:09;;;;;;;;;;;24.10;48.90;;;;;;5116452;28;19995;-54
2023/07/21 12:41:38;;;;;;;;;;;24.00;48.70;;;;;;5116341;28;20011;-50
2023/07/21 12:44:03;;;;;;;;;;;23.90;48.70;;;;;;5115977;28;19908;-41
2023/07/21 12:46:29;;;;;;;;;;;23.70;48.90;;;;;;5116152;28;19915;-38
2023/07/21 12:48:54;;;;;;;;;;;23.60;49.20;;;;;;5115766;28;19919;-42
2023/07/21 12:51:20;;;;;;;;;;;23.50;49.30;;;;;;5115987;28;19920;-37
2023/07/21 12:53:45;;;;;;;;;;;23.60;49.50;;;;;;5115823;28;19919;-40
2023/07/21 12:56:11;;;;;;;;;;;23.50;50.10;;;;;;5115898;28;19919;-39
2023/07/21 12:58:36;;;;;;;;;;;23.40;50.70;;;;;;5116188;28;20359;-39
2023/07/21 13:01:02;;;;;;;;;;;23.20;51.50;;;;;;5115944;28;19916;-39
2023/07/21 13:03:27;;;;;;;;;;;22.90;52.50;;;;;;5097282;28;20015;-39
2023/07/21 13:05:53;;;;;;;;;;;22.60;52.80;;;;;;5115753;28;19912;-37
2023/07/21 13:08:19;;;;;;;;;;;22.30;53.60;;;;;;5115751;28;19916;-39
2023/07/21 13:10:44;;;;;;;;;;;22.10;54.40;;;;;;5115469;28;20007;-36
2023/07/21 13:13:10;;;;;;;;;;;21.80;55.00;;;;;;5115626;28;19919;-41
2023/07/21 13:15:35;;;;;;;;;;;21.50;55.50;;;;;;5115442;28;20367;-40
2023/07/21 13:18:01;;;;;;;;;;;21.20;56.10;;;;;;5115672;28;19961;-48
2023/07/21 13:20:26;;;;;;;;;;;21.00;56.70;;;;;;5115303;28;19912;-49
2023/07/21 13:22:52;;;;;;;;;;;20.80;57.20;;;;;;5115287;28;19943;-43
2023/07/21 13:25:17;;;;;;;;;;;20.60;57.70;;;;;;5114608;28;19912;-41
2023/07/21 13:27:43;;;;;;;;;;;20.40;58.20;;;;;;5115534;28;20252;-40
2023/07/21 13:30:09;;;;;;;;;;;20.30;58.70;;;;;;5115503;28;19916;-39
2023/07/21 13:32:34;;;;;;;;;;;20.20;58.90;;;;;;5115139;28;19969;-41
2023/07/21 13:35:00;;;;;;;;;;;20.20;59.00;;;;;;5114031;28;19918;-40
2023/07/21 13:37:26;;;;;;;;;;;20.10;59.20;;;;;;5114860;28;19912;-42
2023/07/21 13:39:52;;;;;;;;;;;20.10;59.30;;;;;;5115130;28;19961;-39
2023/07/21 13:42:18;;;;;;;;;;;20.10;59.50;;;;;;5115035;28;19920;-41
2023/07/21 13:44:43;;;;;;;;;;;20.10;59.70;;;;;;5115242;28;19919;-41
2023/07/21 13:47:10;;;;;;;;;;;20.10;59.80;;;;;;5114818;28;20367;-41
2023/07/21 13:49:36;;;;;;;;;;;20.10;59.90;;;;;;5115151;28;20328;-40
2023/07/21 13:52:01;;;;;;;;;;;20.20;60.00;;;;;;5114954;28;19916;-34
2023/07/21 13:54:27;;;;;;;;;;;20.30;60.00;;;;;;5114977;28;19999;-40
2023/07/21 13:56:52;;;;;;;;;;;20.40;60.00;;;;;;5114816;28;19957;-37
2023/07/21 13:59:18;;;;;;;;;;;20.70;59.90;;;;;;5115161;28;19923;-40
2023/07/21 14:01:45;;;;;;;;;;;21.00;59.70;;;;;;5114819;28;19916;-48
2023/07/21 14:04:10;;;;;;;;;;;21.30;59.40;;;;;;5114764;28;20367;-46
2023/07/21 14:06:37;;;;;;;;;;;21.60;59.50;;;;;;5114932;28;19912;-40
2023/07/21 14:09:07;;;;;;;;;;;21.80;59.30;;;;;;5114805;28;19912;-41
2023/07/21 14:11:36;;;;;;;;;;;22.10;59.10;;;;;;5096225;28;20287;-39